x

8725110 - Naples, Fl (npsf1) Weather Station

11:54pm - Thu 27th Nov 2014 All times are EST. -5 hours from GMT.

  • Wind
    13mph, 15mph gusts
  • Sea Temp 73°f
  • Air Temp 56°f
  • Sea Pressure 1024.4mb
  • 8725110 - Naples, Fl
  • 8725110 - Naples, Fl

More Historic Weather Station data

Upgrade to MSW Pro to gain access to the past 30 days of data for over 8000 Wavebouys and Weather Stations around the globe.

Join Pro

Comparision Forecast

View Surf forecast
   
Thu 11/27 11:54pm 13 15 mph 1024.4mb 73f 56f
11:48pm 14 18 mph 1024.4mb 73f 56f
11:42pm 10 14 mph 1024.5mb 73f 56f
11:36pm 13 15 mph 1024.6mb 73f 56f
11:30pm 11 21 mph 1024.6mb 73f 56f
11:24pm 14 20 mph 1024.6mb 73f 56f
11:18pm 15 21 mph 1024.6mb 73f 57f
11:12pm 15 20 mph 1024.6mb 73f 57f
11:06pm 15 20 mph 1024.6mb 73f 57f
11:00pm 16 21 mph 1024.7mb 73f 57f
10:54pm 15 20 mph 1024.7mb 73f 58f
10:48pm 13 16 mph 1024.6mb 73f 58f
10:42pm 14 21 mph 1024.6mb 73f 58f
10:36pm 17 21 mph 1024.6mb 73f 59f
10:30pm 15 22 mph 1024.6mb 73f 59f
10:24pm 20 32 mph 1024.6mb 73f 60f
10:18pm 21 25 mph 1024.5mb 73f 60f
10:12pm 14 20 mph 1024.4mb 73f 60f
10:06pm 15 21 mph 1024.3mb 73f 61f
10:00pm 15 21 mph 1024.3mb 73f 61f
9:54pm 15 24 mph 1024.3mb 73f 61f
9:48pm 18 23 mph 1024.3mb 73f 62f
9:42pm 15 26 mph 1024.4mb 73f 62f
9:36pm 16 24 mph 1024.3mb 73f 63f
9:30pm 11 17 mph 1024.3mb 73f 62f
9:24pm 14 17 mph 1024.3mb 73f 63f
9:18pm 15 24 mph - 73f 63f
9:12pm 20 26 mph - 73f 64f
9:06pm 23 29 mph - 73f 64f
9:00pm 24 26 mph 1024.1mb 73f 65f
8:54pm 18 25 mph 1024.1mb 74f 64f
8:48pm 23 26 mph 1024.1mb 74f 64f
8:42pm 21 25 mph 1024mb 74f 65f
8:36pm 22 25 mph 1023.9mb 74f 65f
8:30pm 24 28 mph 1023.9mb 74f 65f
8:24pm 24 25 mph 1023.8mb 74f 65f
8:18pm 21 24 mph 1023.8mb 74f 65f
8:12pm 21 23 mph 1023.7mb 74f 65f
8:06pm 22 23 mph 1023.7mb 74f 65f
8:00pm 21 24 mph 1023.6mb 74f 65f
7:54pm 21 22 mph 1023.6mb 74f 65f
7:48pm 20 22 mph 1023.5mb 74f 65f
7:42pm 17 21 mph 1023.4mb 74f 66f
7:36pm 21 23 mph 1023.4mb 74f 65f
7:30pm 20 23 mph 1023.3mb 74f 66f
7:24pm 20 23 mph 1023.4mb 74f 66f
7:18pm 20 24 mph 1023.3mb 74f 66f
7:12pm 22 24 mph 1023.3mb 74f 66f
7:06pm 23 25 mph 1023.2mb 74f 66f
7:00pm 23 26 mph 1023.1mb 74f 66f
6:48pm 24 26 mph 1023.1mb 74f 67f
6:42pm 23 26 mph 1023mb 74f 67f
6:36pm 23 26 mph 1023mb 75f 67f
6:30pm 22 26 mph 1023mb 75f 67f
6:24pm 23 26 mph 1022.9mb 75f 67f
6:18pm 23 25 mph 1022.9mb - -
6:12pm 23 26 mph 1022.8mb - -
6:06pm 22 24 mph 1022.7mb - -
6:00pm 22 26 mph 1022.7mb - -
5:54pm 22 24 mph 1022.6mb 75f 67f
5:48pm 21 24 mph 1022.6mb 75f 67f
5:36pm 21 24 mph 1022.6mb 75f 67f
5:24pm 22 24 mph 1022.6mb 75f 68f
5:18pm 21 23 mph 1022.6mb 75f 68f
5:12pm 22 24 mph 1022.6mb 75f 68f
5:06pm 20 22 mph 1022.5mb 75f 68f
4:48pm 17 18 mph 1022.4mb 75f 68f
4:42pm 15 18 mph 1022.4mb 75f 68f
4:30pm 18 20 mph 1022.3mb - -
4:24pm 16 18 mph 1022.3mb 75f 68f
4:18pm 15 17 mph 1022.3mb 75f 68f
4:12pm 15 17 mph 1022.2mb 75f 68f
4:06pm 15 16 mph 1022.2mb 75f 68f
4:00pm 14 15 mph 1022.3mb 75f 69f
3:54pm 14 15 mph 1022.3mb 75f 68f
3:48pm 13 14 mph 1022.3mb 75f 68f
3:42pm 13 15 mph 1022.3mb 75f 68f
3:36pm 13 15 mph 1022.2mb 75f 68f
3:24pm 14 15 mph 1022.2mb 75f 68f
3:18pm 13 15 mph 1022.2mb 75f 68f
3:12pm 14 15 mph 1022.2mb 75f 68f
3:00pm 14 16 mph 1022.2mb - -
2:54pm 15 16 mph 1022.2mb 75f 69f
2:42pm 14 16 mph 1022.2mb 75f 69f
2:30pm 15 17 mph 1022.2mb 75f 69f
2:24pm 16 17 mph 1022.2mb 75f 69f
2:18pm 15 17 mph 1022.2mb 75f 69f
2:06pm 17 18 mph 1022.3mb 75f 69f
2:00pm 15 20 mph 1022.3mb 75f 69f
1:48pm 17 21 mph 1022.4mb 75f 69f
1:42pm 20 22 mph 1022.5mb 75f 69f
1:36pm 20 22 mph 1022.6mb 75f 69f
1:24pm 17 22 mph 1022.9mb 75f 69f
1:18pm 18 22 mph 1023mb 75f 69f
1:12pm 20 22 mph 1023.1mb 75f 69f
1:06pm 20 22 mph 1023.3mb 75f 69f
1:00pm 16 18 mph 1023.4mb 74f 68f
12:54pm 16 17 mph 1023.5mb 74f 68f
12:48pm 16 18 mph 1023.7mb 74f 68f
12:42pm 16 18 mph 1023.8mb 74f 68f
12:36pm 14 18 mph 1024mb 74f 67f
12:30pm 16 17 mph 1024.1mb 74f 67f
12:24pm 16 18 mph 1024.2mb 74f 67f
12:12pm 15 17 mph 1024.5mb 74f 67f
12:00pm 16 20 mph 1024.7mb 74f 67f
11:54am 17 20 mph 1024.8mb 74f 67f
11:48am 16 21 mph 1025mb 74f 66f
11:36am 17 22 mph 1025.1mb 74f 66f
11:24am 16 20 mph 1025.3mb 74f 66f
11:18am 15 17 mph 1025.5mb 74f 66f
11:12am 15 18 mph 1025.6mb 74f 66f
11:00am 14 16 mph 1025.8mb 74f 65f
10:48am 14 20 mph 1026mb 74f 65f
10:42am 9 15 mph 1026.1mb 73f 65f
10:36am 11 14 mph 1026.1mb 73f 64f
10:30am 13 16 mph 1026.2mb 73f 63f
10:18am 8 11 mph 1026.4mb 73f 63f
10:12am 9 14 mph 1026.6mb 73f 63f
10:06am 10 13 mph 1026.6mb 73f 62f
10:00am 10 11 mph 1026.6mb 73f 62f
9:48am 8 11 mph 1026.7mb 73f 61f
9:36am 13 15 mph 1026.7mb 73f 60f
9:30am 10 14 mph 1026.7mb 73f 60f
9:18am 8 14 mph 1026.5mb 73f 59f
9:12am 9 11 mph 1026.6mb 73f 59f
9:00am 8 13 mph - - -
8:54am 7 11 mph 1026.5mb 73f 58f
8:48am 8 9 mph 1026.5mb 73f 57f
8:36am 7 9 mph 1026.4mb 73f 55f
8:30am 5 7 mph 1026.3mb 73f 55f
8:18am 3 6 mph 1026.2mb 73f 55f
8:12am 5 7 mph 1026.2mb 73f 54f
8:06am 3 6 mph 1026.1mb 73f 54f
8:00am 3 6 mph 1026.1mb 73f 53f
7:48am 5 6 mph 1026mb 73f 53f
7:36am 6 7 mph 1025.8mb 73f 52f
7:30am 5 6 mph 1025.7mb 73f 52f
7:24am 5 6 mph 1025.7mb 73f 52f
7:12am 5 7 mph 1025.6mb 73f 51f
7:06am 5 7 mph 1025.6mb 73f 51f
7:00am 5 7 mph 1025.5mb 73f 51f
6:54am 3 6 mph 1025.5mb 73f 51f
6:48am 3 5 mph 1025.4mb 73f 51f
6:42am 2 5 mph 1025.3mb 73f 51f
6:36am 2 5 mph 1025.3mb 73f 51f
6:30am 3 5 mph 1025.3mb 73f 51f
6:18am 3 5 mph 1024.9mb 73f 51f
6:12am 3 6 mph 1025mb 73f 51f
6:06am 5 7 mph 1024.9mb 73f 51f
6:00am 5 6 mph 1024.9mb 73f 51f
5:54am 5 10 mph 1024.9mb 73f 51f
5:42am 7 9 mph 1025mb 74f 52f
5:30am 6 9 mph 1024.9mb 74f 53f
5:24am 6 9 mph 1024.8mb 74f 53f
5:18am 7 9 mph 1024.7mb 74f 53f
5:12am 7 9 mph 1024.7mb 74f 53f
5:06am 7 11 mph 1024.5mb 74f 53f
5:00am 11 15 mph 1024.4mb 74f 54f
4:54am 11 16 mph 1024.4mb 74f 55f
4:48am 13 16 mph 1024.3mb 74f 55f
4:42am 11 14 mph 1024.3mb 74f 55f
4:36am 10 16 mph 1024.2mb 74f 54f
4:30am 9 15 mph 1024.1mb 74f 54f
4:24am 8 11 mph 1024mb 74f 54f
4:18am 7 10 mph 1024mb 74f 54f
4:06am 8 11 mph 1024mb 74f 54f
4:00am 8 11 mph 1024mb 74f 54f
3:54am 9 11 mph 1024mb 74f 54f
3:42am 8 10 mph 1023.9mb 74f 54f
3:30am 10 13 mph 1023.7mb 74f 53f
3:18am 10 13 mph 1023.7mb 74f 53f
3:12am 10 11 mph 1023.7mb 75f 53f
3:06am 8 11 mph 1023.8mb 75f 52f
3:00am 7 8 mph 1023.7mb 75f 52f
2:54am 6 7 mph 1023.6mb 75f 52f
2:48am 5 6 mph 1023.6mb 75f 52f
2:42am 3 5 mph 1023.6mb 75f 52f
2:36am 3 6 mph 1023.5mb 75f 52f
2:24am 5 7 mph 1023.4mb 74f 52f
2:18am 6 7 mph 1023.4mb 75f 52f
2:12am 6 7 mph 1023.4mb 75f 52f
2:06am 3 6 mph 1023.3mb - 53f
1:54am 5 8 mph 1023.4mb 75f 53f
1:42am 6 9 mph 1023.5mb 75f 53f
1:36am 7 9 mph 1023.6mb 75f 53f
1:30am 8 10 mph 1023.7mb 75f 53f
1:24am 8 10 mph 1023.8mb 75f 53f
1:18am 8 10 mph 1023.8mb 75f 53f
1:12am 7 9 mph 1023.8mb 75f 53f
1:06am 7 9 mph 1023.8mb 75f 53f
1:00am 7 9 mph 1023.8mb 75f 54f
12:48am 6 9 mph 1023.7mb 75f 54f
12:42am 6 8 mph 1023.8mb 75f 54f
12:36am 6 9 mph 1023.8mb 75f 54f
12:30am 7 9 mph 1023.7mb 75f 54f
12:24am 8 10 mph 1023.7mb 75f 54f
12:18am 8 10 mph 1023.7mb 75f 54f
12:12am 8 10 mph 1023.8mb 75f 54f
12:00am 7 11 mph 1023.7mb 75f 55f
Wed 11/26 11:48pm 9 10 mph 1023.7mb 75f 55f
11:42pm 7 8 mph 1023.8mb 75f 54f
11:30pm 6 8 mph - - -
11:24pm 6 10 mph 1023.8mb 75f 55f
11:18pm 7 9 mph 1023.9mb 75f 55f
11:06pm 7 8 mph 1023.8mb 75f 55f
11:00pm 7 8 mph 1023.8mb 75f 55f
10:48pm 6 7 mph 1023.8mb 75f 55f
10:42pm 5 7 mph 1023.8mb 75f 55f
10:30pm 5 7 mph - - -
10:24pm 6 8 mph 1023.6mb 75f 55f
10:12pm 5 6 mph 1023.6mb 75f 56f
10:06pm 3 6 mph 1023.6mb 75f 56f
10:00pm 3
mph
1023.7mb 75f 56f
9:54pm 3 5 mph 1023.7mb 75f 56f
9:48pm 5 7 mph 1023.7mb 75f 56f
9:42pm 3 6 mph 1023.7mb 75f 56f
9:36pm 3 6 mph 1023.6mb 75f 56f
9:30pm 5
mph
1023.5mb 75f 56f
9:24pm 3 5 mph 1023.5mb 75f 56f
9:18pm 3 6 mph 1023.4mb 75f 56f
9:12pm 3 5 mph 1023.4mb 75f 56f
9:06pm 3 6 mph 1023.4mb 75f 56f
8:54pm 3
mph
1023.3mb 75f 56f
8:48pm 2 5 mph 1023.2mb 75f 56f
8:42pm 3 5 mph 1023.2mb 75f 57f
8:36pm 3 5 mph 1023.1mb 75f 57f
8:30pm 3 6 mph 1023mb - 57f
8:18pm 3 5 mph 1022.8mb 75f 57f
8:12pm 3 5 mph 1022.7mb 75f 57f
7:48pm 3 5 mph 1022.5mb 75f 58f
7:30pm 3 6 mph - - -
7:24pm 5 6 mph 1022.3mb 75f 58f
7:18pm 3 6 mph 1022.4mb 75f 59f
7:12pm 6 7 mph 1022.3mb 75f 59f
7:00pm 6 9 mph 1022.3mb 75f 59f
6:54pm 7 10 mph 1022.3mb 75f 59f
6:48pm 6 9 mph 1022.3mb 75f 59f
6:42pm 6 10 mph 1022.3mb 75f 59f
6:36pm 7 11 mph 1022.3mb 75f 60f
6:24pm 7 10 mph 1022.1mb 75f 60f
6:18pm 7 11 mph 1022mb 75f 60f
6:06pm 8 13 mph 1021.9mb 75f 60f
5:48pm 9 11 mph 1021.8mb 75f 60f
5:42pm 9 13 mph 1021.7mb 75f 60f
5:30pm 11 15 mph 1021.6mb 75f 60f
5:24pm 11 15 mph 1021.6mb - -
5:18pm 9 13 mph 1021.6mb 75f 61f
5:06pm 10 14 mph 1021.6mb 75f 61f
5:00pm 13 15 mph 1021.6mb 75f 61f
4:54pm 15 21 mph 1021.5mb 75f -
4:48pm 11 16 mph 1021.5mb 75f 61f
4:42pm 14 16 mph 1021.3mb - -
4:36pm 13 18 mph 1021.2mb 75f 61f
4:30pm 13 17 mph 1021.3mb 76f 61f
4:24pm 10 14 mph 1021.4mb 76f 61f
4:12pm 11 14 mph 1021.3mb 76f 62f
3:48pm 17 24 mph 1020.7mb 76f 62f
3:42pm 23 28 mph 1020.6mb 76f 63f
3:36pm 23 30 mph 1020.5mb 76f -
3:30pm 29 33 mph 1020.5mb 76f 63f
3:24pm 29 32 mph 1020.5mb 76f 63f
3:18pm 29 32 mph 1020.4mb 76f 63f
3:12pm 28 32 mph 1020.3mb 76f 64f
3:06pm 28 32 mph 1020.3mb 76f 64f
3:00pm 25 32 mph 1020.3mb 76f 64f
2:54pm 28 31 mph 1020.3mb 76f 64f
2:48pm 26 30 mph 1020.3mb 76f 64f
2:42pm 24 28 mph 1020.2mb 76f 64f
2:36pm 22 29 mph 1020.2mb 76f 64f
2:30pm 25 29 mph 1020.2mb 76f 65f
2:18pm 25 29 mph 1020.2mb 76f 64f
2:12pm 23 26 mph 1020.3mb 76f 64f
2:06pm 23 28 mph 1020.1mb 76f 64f
2:00pm 23 26 mph 1020.1mb 76f 64f
1:48pm 24 28 mph 1020.2mb 76f 64f
1:42pm 22 26 mph 1020.2mb 76f 64f
1:36pm 21 26 mph 1020.2mb 76f 64f
1:30pm 17 22 mph 1020.4mb 76f 63f
1:24pm 17 23 mph 1020.6mb 76f 63f
1:18pm 17 20 mph 1020.6mb 76f 63f
1:12pm 18 26 mph 1020.6mb 76f 63f
12:54pm 22 29 mph 1020.4mb 76f 64f
12:48pm 22 25 mph 1020.7mb 76f 64f
12:42pm 17 25 mph 1020.6mb 76f 63f
12:36pm 22 24 mph 1020.8mb 76f 64f
12:30pm 22 25 mph 1021mb 77f 64f
12:24pm 22 24 mph 1021mb 76f 64f
12:18pm 23 28 mph 1021.2mb 77f 64f
12:06pm 21 29 mph 1020.9mb 77f 64f
12:00pm 25 29 mph 1020.8mb 77f 64f
11:54am 26 30 mph 1021mb 77f 64f
11:48am 24 29 mph 1020.8mb - -
11:42am 26 31 mph 1020.9mb 77f 64f
11:36am 26 32 mph 1020.9mb 77f 64f
11:30am 26 32 mph 1020.7mb 77f 64f
11:24am 26 31 mph 1020.7mb 77f 64f
11:18am 28 29 mph 1020.7mb 77f 64f
11:06am 23 28 mph 1021.1mb 77f 64f
11:00am 25 28 mph 1021.2mb 77f 64f
10:48am 22 29 mph 1021.1mb 77f 64f
10:42am 26 30 mph 1020.6mb 77f 64f
10:36am 25 31 mph 1020.6mb 77f 65f
10:30am 28 34 mph 1020.1mb 77f 65f
10:24am 32 36 mph 1019.4mb 77f 64f
10:18am 28 32 mph 1020mb 77f 64f
10:06am 26 31 mph 1020.7mb 77f 64f
10:00am 26 29 mph 1020.9mb 77f 64f
9:54am 23 29 mph 1021.1mb 77f 65f
9:48am 24 29 mph 1021mb 77f 65f
9:36am 23 28 mph 1020.6mb 77f 65f
9:24am 24 28 mph 1020mb 77f 65f
9:18am 25 30 mph 1019.4mb 77f 65f
9:06am 23 26 mph 1018.5mb 77f 65f
9:00am 16 21 mph 1018.3mb 77f 64f
8:48am 13 16 mph 1018.7mb 77f 64f
8:42am 10 11 mph 1018.7mb 77f 64f
8:36am 8 15 mph 1018.5mb 77f 64f
8:30am 10 16 mph 1018.3mb - 64f
8:18am 14 18 mph 1018mb 77f 65f
8:12am 14 18 mph 1018.2mb 77f 65f
8:06am 16 21 mph 1017.9mb 77f 65f
7:54am 14 28 mph 1017.8mb 77f 64f
7:42am 25 30 mph 1017.7mb 78f 63f
7:30am 33 37 mph 1017.4mb 78f 63f
7:24am 34 40 mph 1017mb 78f 64f
7:12am 33 40 mph 1016.9mb 78f 66f
7:06am 33 37 mph 1016.7mb 78f 66f
7:00am 30 33 mph 1016.6mb 78f 66f
6:54am 33 34 mph 1016.6mb - -
6:42am 31 34 mph 1016.2mb - -
6:36am 31 36 mph 1016.1mb 79f 66f
6:30am 30 32 mph 1015.9mb 79f 67f
6:24am 30 33 mph 1015.6mb 79f 67f
6:18am 30 32 mph 1015.6mb 79f 67f
6:12am 25 29 mph 1015.5mb 79f 67f
6:06am 25 29 mph 1015.1mb 79f 68f
6:00am 10
mph
1014.9mb 79f 73f
5:48am 9 11 mph 1014.7mb - -
5:36am 13 15 mph 1014.3mb 79f 73f
5:24am 13 14 mph 1013.9mb - -
5:18am 10 11 mph 1013.7mb - -
5:12am 6 14 mph 1013.7mb - -
5:06am 11 15 mph 1013.5mb 79f 73f
5:00am 11 15 mph 1013.5mb 79f 73f
4:54am 11 16 mph 1013.1mb 79f 73f
4:42am 11 13 mph 1013.6mb 79f 73f
4:36am 10 13 mph 1013.6mb 79f 73f
4:30am 9 13 mph 1013.6mb 79f 73f
4:24am 3 6 mph 1013.4mb - -
4:12am 5 16 mph 1013.2mb 78f 73f
4:06am 16 22 mph 1013.3mb 78f 73f
3:54am 17 20 mph 1013.5mb - -
3:48am 16 21 mph 1013.4mb 78f 74f
3:42am 14
mph
1013.6mb - -
3:30am 11 16 mph 1013.3mb 78f -
3:24am 10 18 mph 1013.2mb - -
3:12am 16 22 mph 1012.9mb 78f 76f
3:00am 15 20 mph 1012.9mb 78f 76f
2:54am 20 21 mph 1012.9mb 78f 76f
2:42am 17 21 mph 1012.8mb 78f 76f
2:36am 16 20 mph 1013mb 78f 76f
2:30am 16 21 mph 1012.9mb 78f 76f
2:18am 18 24 mph 1012.9mb 78f 77f
2:12am 16 21 mph 1012.9mb 78f 77f
2:06am 16 22 mph 1012.8mb - -
1:54am 16 20 mph 1012.9mb - -
1:42am 14 18 mph 1012.9mb 78f 78f
1:36am 14 16 mph 1012.8mb - -
1:24am 14 18 mph 1012.8mb 78f 78f
1:18am 15 18 mph 1013mb 78f 78f
1:06am 13 14 mph 1013mb 78f 78f
1:00am 11 13 mph 1012.9mb - -
12:54am 11 14 mph 1013.1mb 78f 78f
12:48am 10 13 mph 1013.2mb 78f 78f
12:36am 13 16 mph 1013.1mb 78f 78f
12:30am 10 14 mph 1013.1mb 78f 78f
12:24am 10 15 mph 1013.2mb 78f 78f
12:18am 13 18 mph 1013.1mb 78f 78f
12:06am 14 16 mph 1013mb 78f 78f
12:00am 14 17 mph 1013mb 78f 77f
Tue 11/25 11:54pm 16 18 mph 1013mb 78f 77f
11:48pm 14 17 mph 1012.9mb 78f 77f
11:36pm 13 18 mph 1013mb 78f 77f
11:30pm 14 16 mph 1013.1mb 78f 77f
11:18pm 14 17 mph 1013.1mb 78f 77f
11:12pm 14 17 mph 1013.2mb 78f 77f
11:00pm 14 18 mph 1013.5mb 78f 78f
10:54pm 10 11 mph 1013.7mb 78f 78f
10:42pm 11 16 mph 1013.7mb 78f 78f
10:36pm 11 15 mph 1013.8mb 78f 78f
10:24pm 10 14 mph 1014mb 78f 78f
10:12pm 13 15 mph 1013.8mb 78f 78f
10:06pm 14 15 mph 1013.9mb 78f 78f
10:00pm 11 14 mph 1013.9mb 78f 78f
9:54pm 10 14 mph 1013.9mb - -
9:42pm 10 14 mph 1014.1mb 78f 78f
9:30pm 11 15 mph 1014.1mb - -
9:18pm 10 14 mph 1014mb 78f 78f
9:06pm 9 13 mph 1014.1mb 78f 78f
9:00pm 8 11 mph 1014.1mb 78f 78f
8:48pm 10 14 mph 1014.2mb 78f 78f
8:36pm 9 10 mph 1014.3mb 78f 78f
8:30pm 10 13 mph 1014.3mb - -
8:18pm 9 11 mph 1014.4mb 78f 78f
8:12pm 10 14 mph 1014.4mb 78f 78f
8:06pm 10 14 mph 1014.4mb 78f 78f
7:54pm 11 14 mph 1014.4mb 78f 78f
7:48pm 13 15 mph 1014.4mb 78f 78f
7:36pm 10 14 mph 1014.3mb 78f 78f
7:30pm 11 15 mph 1014.3mb 78f 78f
7:24pm 11 15 mph 1014.4mb - -
7:18pm 13 16 mph 1014.4mb 78f 78f
7:12pm 9 14 mph 1014.4mb 78f 78f
7:06pm 10 14 mph 1014.5mb 78f 78f
7:00pm 10 14 mph 1014.4mb 79f 78f
6:48pm 10 13 mph 1014.5mb 79f 78f
6:42pm 9 14 mph 1014.4mb 79f 78f
6:36pm 11 14 mph 1014.4mb 79f 78f
6:30pm 10 14 mph 1014.3mb 79f 78f
6:24pm 10 15 mph 1014.2mb 79f 78f
6:18pm 9 16 mph 1014.2mb 79f 78f
6:06pm 13 17 mph 1014.1mb 79f 79f
6:00pm 11 16 mph 1014.1mb 79f 79f
5:54pm 11 16 mph 1014mb 79f 79f
5:48pm 13 15 mph 1014mb 79f 79f
5:42pm 10 15 mph 1013.7mb 79f 79f
5:36pm 14 16 mph 1013.6mb 79f 79f
5:30pm 13 17 mph 1013.5mb 79f 79f
5:24pm 14 17 mph 1013.5mb 78f 79f
5:18pm 14 17 mph 1013.5mb 79f 78f
5:12pm 14 18 mph 1013.5mb 78f 79f
5:06pm 15 18 mph 1013.5mb 78f 79f
4:54pm 15 21 mph 1013.5mb 78f 79f
4:48pm 17 22 mph 1013.5mb 78f 79f
4:42pm 18 22 mph 1013.5mb 78f 79f
4:36pm 18 24 mph 1013.4mb 78f 79f
4:30pm 18 23 mph 1013.5mb 78f 79f
4:24pm 16 25 mph 1013.4mb 78f 79f
4:18pm 18 25 mph 1013.4mb 78f 79f
4:12pm 17 23 mph 1013.4mb 78f 79f
4:06pm 20 26 mph 1013.3mb 78f 80f
4:00pm 20 25 mph 1013.2mb 78f 80f
3:54pm 14 23 mph 1013.2mb 78f 80f
3:42pm 16 24 mph 1013.1mb 78f 80f
3:36pm 20 25 mph 1013.1mb 78f 81f
3:30pm 21 28 mph 1013.1mb 78f 81f
3:24pm 20 26 mph 1013.1mb 78f 81f
3:18pm 15 21 mph 1013.2mb 78f 81f
3:12pm 13 28 mph 1013.2mb 78f 81f
3:06pm 16 26 mph 1013.2mb 78f 81f
3:00pm 15 25 mph 1013.2mb 78f 81f
2:54pm 18 26 mph 1013.2mb 78f 81f
2:48pm 18 24 mph 1013.1mb 78f 81f
2:42pm 14 20 mph 1013.2mb 78f 81f
2:36pm 15 21 mph 1013.3mb 78f 81f
2:30pm 15 24 mph 1013.3mb 77f 81f
2:24pm 17 22 mph 1013.3mb 77f 80f
2:18pm 17 21 mph 1013.3mb 77f 80f
2:12pm 20 23 mph 1013.3mb 77f 80f
2:06pm 17 23 mph 1013.4mb 77f 80f
1:54pm 14 20 mph 1013.7mb 77f 80f
1:48pm 15 18 mph 1013.8mb 77f 80f
1:42pm 16 23 mph 1013.9mb 77f -
1:36pm 16 23 mph 1013.8mb 77f 80f
1:30pm 16 22 mph 1013.9mb 77f 80f
1:24pm 18 24 mph 1014mb 77f 80f
1:18pm 18 24 mph 1014.2mb 77f 81f
1:12pm 14 23 mph 1014.3mb 77f 81f
1:00pm 15 25 mph 1014.3mb 77f 81f
12:54pm 18 23 mph 1014.6mb 77f 80f
12:48pm 17 23 mph 1014.7mb 77f 81f
12:42pm 16 25 mph 1014.6mb 77f 81f
12:36pm 21 24 mph 1014.7mb 77f 81f
12:30pm 16 23 mph 1014.8mb 77f 81f
12:18pm 17 25 mph 1014.9mb 77f 81f
12:12pm 16 22 mph 1015mb 77f 81f
12:06pm 16 22 mph 1015mb 77f 81f
12:00pm 16 20 mph 1015.2mb 77f 81f
11:54am 17 23 mph 1015.2mb 77f 81f
11:48am 14 22 mph 1015.4mb 77f 81f
11:42am 18 25 mph 1015.6mb 77f 81f
11:36am 20 25 mph 1015.6mb 77f 81f
11:30am 21 26 mph 1015.7mb 77f 81f
11:24am 22 28 mph 1015.9mb 77f 81f
11:18am 20 26 mph 1016mb 77f 81f
11:12am 16 22 mph 1016.1mb 77f 81f
11:06am 15 22 mph 1016.2mb 77f 81f
11:00am 18 24 mph 1016.3mb 77f 80f
10:54am 18 25 mph 1016.4mb 77f 80f
10:42am 14 21 mph 1016.4mb 77f 80f
10:36am 18 24 mph 1016.5mb 77f 80f
10:30am 16 23 mph 1016.5mb 77f 81f
10:24am 14 24 mph 1016.5mb 77f 80f
10:18am 18 23 mph 1016.5mb 77f 80f
10:12am 13 20 mph 1016.4mb 77f 80f
10:06am 13 18 mph 1016.3mb 77f 80f
10:00am 14 20 mph 1016.4mb 77f 81f
9:54am 13 22 mph 1016.3mb 77f 81f
9:48am 17 22 mph 1016.3mb 76f 80f
9:42am 16 21 mph 1016.4mb 77f 81f
9:36am 10 22 mph 1016.4mb 77f 81f
9:24am 15 21 mph 1016.5mb 77f 80f
9:18am 16 18 mph - - -
9:12am 13 20 mph - - -
9:06am 14 17 mph - - -
9:00am 14 17 mph 1016.5mb 76f 80f
8:54am 10 14 mph 1016.5mb 76f 79f
8:48am 13 17 mph 1016.5mb 76f 79f
8:42am 11 15 mph 1016.5mb 76f 79f
8:36am 14 20 mph 1016.4mb 76f 79f
8:30am 13 16 mph 1016.4mb 76f 79f
8:24am 13 21 mph 1016.4mb 76f 79f
8:18am 11 17 mph 1016.4mb 76f 79f
8:12am 8 15 mph 1016.3mb 76f 78f
8:00am 10 15 mph 1016.3mb 76f 78f
7:54am 9 14 mph 1016.3mb 76f 78f
7:48am 7 11 mph 1016.3mb 76f 78f
7:42am 9 14 mph 1016.4mb 76f 78f
7:36am 9 14 mph 1016.4mb 76f 78f
7:30am 8 13 mph 1016.4mb 76f 78f
7:24am 9 13 mph 1016.3mb 76f 78f
7:18am 9 11 mph 1016.4mb 76f 78f
7:12am 8 10 mph 1016.4mb 76f 78f
7:06am 8 11 mph 1016.4mb 76f 78f
6:54am 9 13 mph 1016.2mb 76f 78f
6:48am 8 10 mph 1016.1mb 76f 78f
6:42am 7 16 mph 1016.1mb 76f 78f
6:30am 8 9 mph 1016.1mb 76f 78f
6:24am 8 13 mph 1016mb 76f 78f
6:18am 10 15 mph 1015.8mb 76f 78f
6:12am 8 13 mph 1015.8mb 76f 78f
6:06am 8 14 mph 1016mb 76f 78f
6:00am 10 14 mph 1016mb 76f 78f
5:48am 8 14 mph 1015.9mb 76f 78f
5:42am 8 11 mph 1015.9mb 76f 78f
5:36am 9 14 mph 1015.8mb 76f 78f
5:30am 9 13 mph 1015.8mb 76f 78f
5:24am 7 10 mph 1015.8mb 76f 78f
5:18am 7 13 mph 1015.7mb 76f 78f
5:12am 8 11 mph 1015.6mb 76f 78f
5:06am 9 10 mph 1015.6mb 76f 78f
4:54am 8 13 mph 1015.7mb 76f 78f
4:48am 8 11 mph 1015.7mb 76f 78f
4:42am 7 10 mph 1015.8mb 76f 78f
4:36am 8 10 mph 1015.8mb 76f 78f
4:30am 8 11 mph 1015.7mb 76f 78f
4:18am 8 10 mph 1015.8mb 76f 78f
4:12am 7 9 mph 1015.7mb 76f 78f
4:00am 6 9 mph 1015.7mb - -
3:54am 7 10 mph 1015.7mb - -
3:48am 8 13 mph 1015.7mb 76f 78f
3:42am 8 10 mph 1015.7mb 76f 78f
3:30am 9 14 mph 1015.6mb - -
3:24am 8 11 mph 1015.7mb 76f 78f
3:18am 8 17 mph 1015.7mb 76f 78f
3:12am 9 11 mph 1015.7mb 76f 77f
3:06am 9 11 mph 1015.7mb 76f 78f
2:54am 7 10 mph 1015.7mb 76f 78f
2:48am 8 10 mph 1015.8mb 76f 78f
2:36am 8 13 mph 1016mb 77f 78f
2:24am 8 14 mph 1016.2mb 76f 78f
2:12am 7 10 mph 1016.3mb 76f 78f
2:06am 8 13 mph 1016.3mb 76f 78f
2:00am 8 10 mph 1016.3mb - -
1:54am 6 9 mph 1016.3mb 76f 78f
1:48am 7 9 mph 1016.5mb 76f 78f
1:36am 6 8 mph 1016.6mb 76f 77f
1:30am 5 6 mph 1016.5mb 76f 77f
1:18am 5 8 mph 1016.6mb 76f 77f
1:12am 7 9 mph 1016.6mb 76f 77f
1:00am 6 7 mph 1016.8mb - -
12:54am 6 7 mph 1016.9mb 76f 77f
12:42am 5 7 mph 1016.8mb 76f 77f
12:36am 5 7 mph 1016.8mb 76f 77f
12:30am 5 6 mph 1016.9mb 76f 77f
12:24am 5 7 mph 1016.9mb 76f 77f
12:18am 6 8 mph 1017mb 76f 77f
12:12am 5 6 mph 1017mb 76f 77f
12:00am 3 5 mph 1017mb - -
Mon 11/24 11:54pm 3 6 mph 1017.1mb 76f 77f
11:48pm 5 6 mph 1017.2mb 76f 77f
11:42pm 5 6 mph 1017.3mb 76f 77f
11:30pm 3 5 mph 1017.4mb - -
11:24pm 5 7 mph 1017.5mb - 77f
11:12pm 5 6 mph 1017.5mb 76f 77f
11:06pm 5 6 mph 1017.5mb 76f 77f
11:00pm 3 6 mph 1017.5mb - 77f
10:54pm 6
mph
1017.4mb 76f 77f
10:48pm 6 8 mph 1017.3mb 76f 77f
10:42pm 5 7 mph 1017.2mb 76f 77f
10:36pm 5 6 mph 1017.2mb 76f 77f
10:24pm 6
mph
1017.2mb 77f 77f
10:18pm 6 8 mph 1017.2mb 77f 77f
10:12pm 7 9 mph 1017.2mb 77f 77f
10:06pm 7 8 mph 1017.1mb 77f 77f
10:00pm 6 7 mph 1017.1mb 77f -
9:54pm 7 8 mph 1017.1mb 77f 77f
9:48pm 6 7 mph 1017.1mb 77f 77f
9:42pm 7 8 mph 1017.1mb 77f 77f
9:30pm 6 7 mph 1017mb 77f 77f
9:18pm 3 6 mph 1017mb 77f 77f
9:12pm 5 6 mph 1017mb 77f 77f
9:06pm 3 5 mph 1017mb 77f 77f
9:00pm 3 5 mph 1016.9mb 77f 78f
8:54pm 3
mph
1016.9mb 77f 77f
8:48pm 3
mph
1016.9mb 77f 78f
8:36pm 3 5 mph 1016.8mb 77f 77f
8:30pm 3 5 mph 1016.8mb 77f 77f
8:18pm 3 6 mph 1016.7mb 77f 77f
8:12pm 5 6 mph 1016.6mb 77f 77f
8:00pm 3 5 mph 1016.7mb 77f 77f
7:54pm 3 5 mph 1016.7mb 77f 77f
7:48pm 3 5 mph 1016.6mb - 77f
7:36pm 3 5 mph 1016.4mb 78f 77f
7:24pm 5 6 mph 1016.3mb 78f 77f
7:18pm 2 5 mph 1016.3mb 78f 77f
7:12pm 3
mph
1016.2mb 78f 77f
7:06pm 2 3 mph 1016mb 78f 77f
7:00pm 3
mph
- - -
6:54pm 2 3 mph 1016mb 78f 77f
6:48pm 1 2 mph 1015.9mb 78f 77f
6:42pm 2 3 mph 1015.9mb 77f 77f
6:30pm 5 6 mph 1015.7mb 77f -
6:24pm 5 6 mph 1015.7mb 78f 77f
6:18pm 5
mph
1015.6mb 78f 77f
6:06pm 5 6 mph 1015.3mb - -
5:54pm  -  2 mph 1015.3mb 78f 76f
5:48pm 1 3 mph 1015.3mb 78f 76f
5:36pm 1 5 mph 1015.3mb 78f 76f
5:30pm 2 3 mph 1015.2mb 78f 76f
5:24pm 2 5 mph 1015.2mb 78f 76f
5:18pm 2 5 mph 1015.1mb - -
5:12pm 2 7 mph 1015.1mb - -
5:06pm 2 7 mph 1015.1mb 78f 76f
4:48pm 1 6 mph 1015mb 78f 77f
4:42pm 2 8 mph 1015mb 78f 77f
4:30pm 2 6 mph 1015mb 78f 77f
4:18pm 2 6 mph 1014.9mb 78f 77f
4:06pm 2 6 mph 1014.9mb 78f 76f
4:00pm 3 6 mph 1015mb 78f 76f
3:54pm 2 5 mph 1015.1mb 78f 77f
3:48pm 1 3 mph 1015mb 78f 77f
3:42pm 2 5 mph 1014.9mb - -
3:36pm 2 6 mph 1014.9mb 78f 77f
3:24pm 2 5 mph 1014.8mb 78f 77f
3:18pm 2 5 mph 1014.8mb 78f 77f
3:06pm 2 5 mph 1014.8mb 78f 76f
3:00pm 2 5 mph 1014.8mb - -
2:48pm 5 6 mph 1014.8mb - -
2:36pm 2 5 mph 1014.7mb 77f 76f
2:30pm 2 6 mph 1014.6mb 77f 76f
2:18pm 2 5 mph 1014.5mb - -
2:12pm 2 6 mph 1014.4mb 77f 76f
2:06pm 2 5 mph 1014.4mb 77f 77f
2:00pm 2 5 mph 1014.3mb 77f 76f
1:54pm 2 5 mph 1014.3mb - -
1:48pm 2 6 mph 1014.4mb 77f 76f
1:42pm 2 5 mph 1014.5mb 77f 76f
1:36pm 2 6 mph 1014.5mb 77f 77f
1:24pm 3 6 mph 1014.5mb 77f 76f
1:18pm 2 7 mph 1014.7mb 77f 76f
1:06pm 3 7 mph 1014.8mb 77f 76f
1:00pm 3 6 mph 1014.9mb - -
12:48pm 2 5 mph 1015.1mb - -
12:42pm 2 5 mph 1015.2mb 76f 77f
12:36pm 2 5 mph 1015.4mb 76f 77f
12:30pm 2 5 mph 1015.6mb 76f 77f
12:18pm 2 6 mph 1015.8mb 76f 77f
12:12pm 2 6 mph 1015.8mb 76f 77f
12:00pm 2 6 mph 1015.9mb 76f 77f
11:54am 2 6 mph 1015.9mb 76f 77f
11:48am 2 6 mph 1016mb 76f 77f
11:42am 2 3 mph 1016.1mb - -
11:30am 2 3 mph 1016.3mb 76f 77f
11:18am 2 6 mph 1016.4mb - -
11:06am 2 6 mph 1016.5mb 75f 77f
11:00am 3 5 mph 1016.6mb 75f 77f
10:48am 3 6 mph 1016.6mb - -
10:36am 5 7 mph 1016.7mb 75f 77f
10:30am 6 8 mph 1016.6mb 75f 77f
10:24am 5 7 mph 1016.6mb 75f 77f
10:12am 8 11 mph 1016.6mb 75f 77f
10:06am 8 11 mph 1016.6mb 75f 77f
9:54am 8 9 mph 1016.6mb - -
9:48am 8 14 mph 1016.6mb 75f 77f
9:42am 6 9 mph 1016.5mb 75f 77f
9:36am 6 11 mph 1016.4mb 75f 77f
9:24am 7 11 mph 1016.4mb - -
9:12am 11 15 mph 1016.4mb - -
9:06am 10 14 mph 1016.4mb 75f 77f
9:00am 11 14 mph 1016.4mb - -
8:48am 11
mph
1016.4mb - -
8:36am 7 10 mph 1016.4mb 75f 77f
8:24am 8 10 mph 1016.3mb 75f 76f
8:18am 8 9 mph 1016.3mb - -
8:12am 8 10 mph 1016.3mb 75f 76f
8:06am 8 11 mph 1016.2mb 75f 76f
8:00am 8 10 mph 1016.1mb 75f 76f
7:54am 9 11 mph 1016.1mb 75f 76f
7:48am 8 10 mph 1016mb 75f 76f
7:42am 8 11 mph 1016mb 75f 76f
7:36am 7 10 mph 1015.9mb - -
7:24am 8 11 mph 1015.8mb 75f 76f
7:18am 8 11 mph 1015.7mb 75f 76f
7:06am 9 11 mph 1015.6mb 75f 76f
7:00am 8 13 mph 1015.5mb 75f 76f
6:54am 10 11 mph 1015.4mb 75f 76f
6:42am 9 13 mph 1015.4mb 75f 76f
6:36am 8 13 mph 1015.2mb 75f 76f
6:30am 9 13 mph 1015.2mb 75f 76f
6:18am 9 15 mph 1015.1mb 75f 76f
6:06am 10 14 mph 1014.8mb 75f 76f
6:00am 11 15 mph 1014.7mb - -
5:54am 9 13 mph 1014.7mb 74f 76f